sensor_id;sensor_type;location;lat;lon;timestamp;pressure;altitude;pressure_sealevel;temperature;humidity
65754;BME280;69207;47.502;18.940;2023-07-13T00:00:56;97909.50;;;22.81;83.91
65754;BME280;69207;47.502;18.940;2023-07-13T00:01:59;97894.88;;;22.85;82.02
65754;BME280;69207;47.502;18.940;2023-07-13T00:03:04;97899.66;;;22.78;80.87
65754;BME280;69207;47.502;18.940;2023-07-13T00:04:07;97903.19;;;22.81;79.45
65754;BME280;69207;47.502;18.940;2023-07-13T00:05:10;97905.41;;;22.86;80.07
65754;BME280;69207;47.502;18.940;2023-07-13T00:06:13;97896.09;;;22.74;79.44
65754;BME280;69207;47.502;18.940;2023-07-13T00:07:16;97890.50;;;22.76;78.39
65754;BME280;69207;47.502;18.940;2023-07-13T00:08:22;97888.91;;;22.64;78.80
65754;BME280;69207;47.502;18.940;2023-07-13T00:09:26;97887.50;;;22.63;80.19
65754;BME280;69207;47.502;18.940;2023-07-13T00:10:29;97878.38;;;22.61;80.95
65754;BME280;69207;47.502;18.940;2023-07-13T00:11:32;97872.72;;;22.59;76.86
65754;BME280;69207;47.502;18.940;2023-07-13T00:12:37;97867.69;;;22.51;77.65
65754;BME280;69207;47.502;18.940;2023-07-13T00:13:43;97862.06;;;22.49;78.44
65754;BME280;69207;47.502;18.940;2023-07-13T00:14:46;97866.37;;;22.54;78.93
65754;BME280;69207;47.502;18.940;2023-07-13T00:15:49;97855.12;;;22.52;78.83
65754;BME280;69207;47.502;18.940;2023-07-13T00:16:52;97850.72;;;22.41;77.90
65754;BME280;69207;47.502;18.940;2023-07-13T00:17:55;97842.19;;;22.33;78.17
65754;BME280;69207;47.502;18.940;2023-07-13T00:18:58;97849.13;;;22.30;76.88
65754;BME280;69207;47.502;18.940;2023-07-13T00:20:03;97836.53;;;22.31;75.29
65754;BME280;69207;47.502;18.940;2023-07-13T00:21:06;97830.16;;;22.26;75.60
65754;BME280;69207;47.502;18.940;2023-07-13T00:22:09;97817.75;;;22.35;75.09
65754;BME280;69207;47.502;18.940;2023-07-13T00:23:12;97817.12;;;22.41;72.36
65754;BME280;69207;47.502;18.940;2023-07-13T00:24:18;97824.81;;;22.40;72.43
65754;BME280;69207;47.502;18.940;2023-07-13T00:25:26;97815.69;;;22.38;72.07
65754;BME280;69207;47.502;18.940;2023-07-13T00:26:32;97812.34;;;22.48;71.30
65754;BME280;69207;47.502;18.940;2023-07-13T00:27:35;97809.59;;;22.50;70.89
65754;BME280;69207;47.502;18.940;2023-07-13T00:28:38;97801.09;;;22.44;71.65
65754;BME280;69207;47.502;18.940;2023-07-13T00:29:42;97799.00;;;22.44;71.40
65754;BME280;69207;47.502;18.940;2023-07-13T00:30:45;97789.16;;;22.43;71.24
65754;BME280;69207;47.502;18.940;2023-07-13T00:31:49;97790.56;;;22.42;70.69
65754;BME280;69207;47.502;18.940;2023-07-13T00:32:52;97778.66;;;22.42;69.63
65754;BME280;69207;47.502;18.940;2023-07-13T00:34:14;97783.13;;;22.57;66.85
65754;BME280;69207;47.502;18.940;2023-07-13T00:35:17;97778.16;;;22.53;67.72
65754;BME280;69207;47.502;18.940;2023-07-13T00:36:20;97769.72;;;22.51;67.91
65754;BME280;69207;47.502;18.940;2023-07-13T00:37:23;97778.94;;;22.58;65.86
65754;BME280;69207;47.502;18.940;2023-07-13T00:38:26;97776.19;;;22.60;65.24
65754;BME280;69207;47.502;18.940;2023-07-13T00:39:29;97781.03;;;22.57;65.13
65754;BME280;69207;47.502;18.940;2023-07-13T00:40:32;97779.06;;;22.66;63.69
65754;BME280;69207;47.502;18.940;2023-07-13T00:41:35;97776.31;;;22.70;63.23
65754;BME280;69207;47.502;18.940;2023-07-13T00:42:40;97778.56;;;22.80;60.64
65754;BME280;69207;47.502;18.940;2023-07-13T00:43:44;97768.78;;;22.81;60.20
65754;BME280;69207;47.502;18.940;2023-07-13T00:46:31;97772.34;;;22.83;60.03
65754;BME280;69207;47.502;18.940;2023-07-13T00:47:34;97769.53;;;22.83;60.70
65754;BME280;69207;47.502;18.940;2023-07-13T00:48:38;97772.41;;;22.87;60.55
65754;BME280;69207;47.502;18.940;2023-07-13T00:49:41;97757.12;;;22.95;59.80
65754;BME280;69207;47.502;18.940;2023-07-13T00:50:48;97760.00;;;23.01;58.97
65754;BME280;69207;47.502;18.940;2023-07-13T00:53:02;97749.50;;;23.01;58.87
65754;BME280;69207;47.502;18.940;2023-07-13T00:54:10;97750.19;;;23.02;58.56
65754;BME280;69207;47.502;18.940;2023-07-13T00:55:15;97743.19;;;22.99;58.28
65754;BME280;69207;47.502;18.940;2023-07-13T00:56:18;97743.91;;;23.01;57.74
65754;BME280;69207;47.502;18.940;2023-07-13T00:57:21;97739.00;;;23.02;58.20
65754;BME280;69207;47.502;18.940;2023-07-13T00:58:25;97744.59;;;23.00;58.53
65754;BME280;69207;47.502;18.940;2023-07-13T00:59:29;97743.19;;;22.99;57.78
65754;BME280;69207;47.502;18.940;2023-07-13T01:00:35;97745.97;;;22.99;58.23
65754;BME280;69207;47.502;18.940;2023-07-13T01:01:39;97747.31;;;22.96;58.46
65754;BME280;69207;47.502;18.940;2023-07-13T01:02:44;97748.72;;;22.95;59.56
65754;BME280;69207;47.502;18.940;2023-07-13T01:03:48;97743.78;;;22.93;60.07
65754;BME280;69207;47.502;18.940;2023-07-13T01:04:51;97733.22;;;22.89;59.16
65754;BME280;69207;47.502;18.940;2023-07-13T01:05:54;97731.81;;;22.88;59.43
65754;BME280;69207;47.502;18.940;2023-07-13T01:06:58;97738.84;;;22.89;60.05
65754;BME280;69207;47.502;18.940;2023-07-13T01:08:02;97744.34;;;22.85;60.87
65754;BME280;69207;47.502;18.940;2023-07-13T01:09:07;97754.13;;;22.82;61.89
65754;BME280;69207;47.502;18.940;2023-07-13T01:10:12;97751.87;;;22.75;62.34
65754;BME280;69207;47.502;18.940;2023-07-13T01:11:20;97758.75;;;22.65;62.38
65754;BME280;69207;47.502;18.940;2023-07-13T01:12:24;97762.19;;;22.62;62.55
65754;BME280;69207;47.502;18.940;2023-07-13T01:13:27;97753.72;;;22.58;62.58
65754;BME280;69207;47.502;18.940;2023-07-13T01:14:30;97750.91;;;22.56;62.64
65754;BME280;69207;47.502;18.940;2023-07-13T01:15:39;97755.13;;;22.57;62.95
65754;BME280;69207;47.502;18.940;2023-07-13T01:16:46;97755.72;;;22.51;63.31
65754;BME280;69207;47.502;18.940;2023-07-13T01:17:52;97763.25;;;22.40;63.54
65754;BME280;69207;47.502;18.940;2023-07-13T01:18:56;97758.88;;;22.29;64.24
65754;BME280;69207;47.502;18.940;2023-07-13T01:20:01;97772.75;;;22.23;64.39
65754;BME280;69207;47.502;18.940;2023-07-13T01:21:04;97772.66;;;22.17;65.42
65754;BME280;69207;47.502;18.940;2023-07-13T01:22:16;97778.78;;;22.09;65.81
65754;BME280;69207;47.502;18.940;2023-07-13T01:23:20;97772.44;;;22.07;65.86
65754;BME280;69207;47.502;18.940;2023-07-13T01:24:23;97768.22;;;22.06;66.39
65754;BME280;69207;47.502;18.940;2023-07-13T01:25:26;97759.09;;;22.03;67.07
65754;BME280;69207;47.502;18.940;2023-07-13T01:26:29;97752.13;;;22.04;67.41
65754;BME280;69207;47.502;18.940;2023-07-13T01:27:31;97750.59;;;21.97;67.41
65754;BME280;69207;47.502;18.940;2023-07-13T01:28:36;97748.31;;;21.87;67.50
65754;BME280;69207;47.502;18.940;2023-07-13T01:29:41;97754.47;;;21.80;67.31
65754;BME280;69207;47.502;18.940;2023-07-13T01:30:46;97750.72;;;21.67;67.67
65754;BME280;69207;47.502;18.940;2023-07-13T01:31:49;97750.56;;;21.59;67.81
65754;BME280;69207;47.502;18.940;2023-07-13T01:32:52;97751.16;;;21.53;67.90
65754;BME280;69207;47.502;18.940;2023-07-13T01:33:55;97755.97;;;21.49;68.70
65754;BME280;69207;47.502;18.940;2023-07-13T01:35:00;97746.84;;;21.48;68.75
65754;BME280;69207;47.502;18.940;2023-07-13T01:36:03;97746.81;;;21.46;68.91
65754;BME280;69207;47.502;18.940;2023-07-13T01:37:06;97741.81;;;21.41;69.94
65754;BME280;69207;47.502;18.940;2023-07-13T01:38:10;97741.69;;;21.34;70.29
65754;BME280;69207;47.502;18.940;2023-07-13T01:39:14;97732.56;;;21.32;70.42
65754;BME280;69207;47.502;18.940;2023-07-13T01:40:18;97733.88;;;21.29;70.25
65754;BME280;69207;47.502;18.940;2023-07-13T01:41:21;97735.19;;;21.26;70.69
65754;BME280;69207;47.502;18.940;2023-07-13T01:42:24;97737.22;;;21.21;71.13
65754;BME280;69207;47.502;18.940;2023-07-13T01:43:27;97735.72;;;21.16;70.81
65754;BME280;69207;47.502;18.940;2023-07-13T01:44:30;97730.19;;;21.20;70.76
65754;BME280;69207;47.502;18.940;2023-07-13T01:45:33;97728.88;;;21.23;70.25
65754;BME280;69207;47.502;18.940;2023-07-13T01:46:37;97730.00;;;21.10;70.49
65754;BME280;69207;47.502;18.940;2023-07-13T01:47:40;97728.50;;;21.05;70.84
65754;BME280;69207;47.502;18.940;2023-07-13T01:48:43;97731.22;;;21.03;71.02
65754;BME280;69207;47.502;18.940;2023-07-13T01:49:46;97734.03;;;21.03;71.16
65754;BME280;69207;47.502;18.940;2023-07-13T01:50:49;97732.56;;;21.00;71.08
65754;BME280;69207;47.502;18.940;2023-07-13T01:51:52;97735.38;;;21.00;70.99
65754;BME280;69207;47.502;18.940;2023-07-13T01:52:55;97729.78;;;21.00;71.05
65754;BME280;69207;47.502;18.940;2023-07-13T01:53:58;97725.16;;;21.13;70.77
65754;BME280;69207;47.502;18.940;2023-07-13T01:55:02;97728.56;;;21.09;70.55
65754;BME280;69207;47.502;18.940;2023-07-13T01:56:05;97732.69;;;21.06;69.67
65754;BME280;69207;47.502;18.940;2023-07-13T01:57:08;97732.56;;;21.00;69.57
65754;BME280;69207;47.502;18.940;2023-07-13T01:58:10;97724.22;;;21.02;68.58
65754;BME280;69207;47.502;18.940;2023-07-13T01:59:13;97726.22;;;20.97;68.70
65754;BME280;69207;47.502;18.940;2023-07-13T02:00:17;97725.47;;;20.95;68.80
65754;BME280;69207;47.502;18.940;2023-07-13T02:01:21;97723.25;;;20.89;68.66
65754;BME280;69207;47.502;18.940;2023-07-13T02:02:23;97716.91;;;20.87;69.29
65754;BME280;69207;47.502;18.940;2023-07-13T02:03:27;97717.03;;;20.93;69.02
65754;BME280;69207;47.502;18.940;2023-07-13T02:04:29;97710.72;;;20.90;68.10
65754;BME280;69207;47.502;18.940;2023-07-13T02:05:32;97709.91;;;20.86;68.52
65754;BME280;69207;47.502;18.940;2023-07-13T02:06:35;97702.88;;;20.82;68.87
65754;BME280;69207;47.502;18.940;2023-07-13T02:07:39;97707.84;;;20.86;68.68
65754;BME280;69207;47.502;18.940;2023-07-13T02:08:42;97711.25;;;20.82;67.75
65754;BME280;69207;47.502;18.940;2023-07-13T02:09:45;97713.28;;;20.80;68.12
65754;BME280;69207;47.502;18.940;2023-07-13T02:10:48;97701.41;;;20.79;68.08
65754;BME280;69207;47.502;18.940;2023-07-13T02:11:51;97716.75;;;20.78;68.09
65754;BME280;69207;47.502;18.940;2023-07-13T02:12:54;97718.16;;;20.79;68.16
65754;BME280;69207;47.502;18.940;2023-07-13T02:13:57;97718.97;;;20.84;67.63
65754;BME280;69207;47.502;18.940;2023-07-13T02:15:00;97729.56;;;20.90;67.24
65754;BME280;69207;47.502;18.940;2023-07-13T02:16:03;97722.56;;;20.89;66.94
65754;BME280;69207;47.502;18.940;2023-07-13T02:17:06;97716.19;;;20.86;67.06
65754;BME280;69207;47.502;18.940;2023-07-13T02:18:09;97718.97;;;20.84;66.72
65754;BME280;69207;47.502;18.940;2023-07-13T02:19:12;97713.87;;;20.76;67.75
65754;BME280;69207;47.502;18.940;2023-07-13T02:20:15;97708.97;;;20.75;67.72
65754;BME280;69207;47.502;18.940;2023-07-13T02:21:18;97708.94;;;20.73;67.96
65754;BME280;69207;47.502;18.940;2023-07-13T02:22:21;97710.97;;;20.70;68.06
65754;BME280;69207;47.502;18.940;2023-07-13T02:23:24;97715.84;;;20.70;68.00
65754;BME280;69207;47.502;18.940;2023-07-13T02:24:27;97712.41;;;20.71;67.62
65754;BME280;69207;47.502;18.940;2023-07-13T02:25:30;97713.06;;;20.70;67.64
65754;BME280;69207;47.502;18.940;2023-07-13T02:26:34;97717.88;;;20.67;68.20
65754;BME280;69207;47.502;18.940;2023-07-13T02:27:37;97712.31;;;20.67;67.83
65754;BME280;69207;47.502;18.940;2023-07-13T02:28:40;97717.19;;;20.67;67.27
65754;BME280;69207;47.502;18.940;2023-07-13T02:29:43;97710.91;;;20.66;67.29
65754;BME280;69207;47.502;18.940;2023-07-13T02:30:46;97712.34;;;20.69;67.22
65754;BME280;69207;47.502;18.940;2023-07-13T02:31:49;97720.63;;;20.65;68.74
65754;BME280;69207;47.502;18.940;2023-07-13T02:32:52;97724.28;;;20.72;68.10
65754;BME280;69207;47.502;18.940;2023-07-13T02:33:54;97721.53;;;20.74;67.12
65754;BME280;69207;47.502;18.940;2023-07-13T02:34:57;97730.44;;;20.66;66.99
65754;BME280;69207;47.502;18.940;2023-07-13T02:36:00;97740.81;;;20.64;66.69
65754;BME280;69207;47.502;18.940;2023-07-13T02:37:04;97735.13;;;20.60;66.83
65754;BME280;69207;47.502;18.940;2023-07-13T02:38:07;97737.16;;;20.55;67.36
65754;BME280;69207;47.502;18.940;2023-07-13T02:39:11;97735.66;;;20.52;67.48
65754;BME280;69207;47.502;18.940;2023-07-13T02:40:15;97722.37;;;20.50;68.13
65754;BME280;69207;47.502;18.940;2023-07-13T02:41:18;97725.06;;;20.46;68.47
65754;BME280;69207;47.502;18.940;2023-07-13T02:42:20;97724.94;;;20.42;68.83
65754;BME280;69207;47.502;18.940;2023-07-13T02:43:23;97710.53;;;20.50;68.52
65754;BME280;69207;47.502;18.940;2023-07-13T02:44:26;97713.44;;;20.56;67.70
65754;BME280;69207;47.502;18.940;2023-07-13T02:45:29;97730.66;;;20.46;68.35
65754;BME280;69207;47.502;18.940;2023-07-13T02:46:34;97731.97;;;20.43;68.16
65754;BME280;69207;47.502;18.940;2023-07-13T02:47:39;97741.59;;;20.38;68.90
65754;BME280;69207;47.502;18.940;2023-07-13T02:48:42;97743.03;;;20.39;68.66
65754;BME280;69207;47.502;18.940;2023-07-13T02:49:45;97744.31;;;20.36;69.12
65754;BME280;69207;47.502;18.940;2023-07-13T02:50:48;97744.97;;;20.33;69.39
65754;BME280;69207;47.502;18.940;2023-07-13T02:51:51;97744.84;;;20.28;70.13
65754;BME280;69207;47.502;18.940;2023-07-13T02:52:54;97744.78;;;20.26;70.22
65754;BME280;69207;47.502;18.940;2023-07-13T02:53:57;97743.31;;;20.23;70.68
65754;BME280;69207;47.502;18.940;2023-07-13T02:55:00;97753.81;;;20.25;70.72
65754;BME280;69207;47.502;18.940;2023-07-13T02:56:04;97747.50;;;20.22;71.34
65754;BME280;69207;47.502;18.940;2023-07-13T02:57:07;97748.69;;;20.15;72.12
65754;BME280;69207;47.502;18.940;2023-07-13T02:58:10;97745.09;;;20.11;72.96
65754;BME280;69207;47.502;18.940;2023-07-13T02:59:13;97742.38;;;20.13;72.66
65754;BME280;69207;47.502;18.940;2023-07-13T03:00:16;97743.06;;;20.13;72.29
65754;BME280;69207;47.502;18.940;2023-07-13T03:01:20;97752.00;;;20.08;71.84
65754;BME280;69207;47.502;18.940;2023-07-13T03:02:24;97764.38;;;20.00;71.76
65754;BME280;69207;47.502;18.940;2023-07-13T03:03:27;97762.84;;;19.95;72.24
65754;BME280;69207;47.502;18.940;2023-07-13T03:04:30;97769.78;;;19.94;72.20
65754;BME280;69207;47.502;18.940;2023-07-13T03:05:33;97769.00;;;19.92;72.20
65754;BME280;69207;47.502;18.940;2023-07-13T03:06:37;97772.34;;;19.86;72.27
65754;BME280;69207;47.502;18.940;2023-07-13T03:07:39;97772.88;;;19.81;72.44
65754;BME280;69207;47.502;18.940;2023-07-13T03:08:43;97774.13;;;19.75;73.17
65754;BME280;69207;47.502;18.940;2023-07-13T03:09:46;97790.03;;;19.71;73.89
65754;BME280;69207;47.502;18.940;2023-07-13T03:10:59;97788.56;;;19.68;74.48
65754;BME280;69207;47.502;18.940;2023-07-13T03:12:02;97789.22;;;19.66;75.00
65754;BME280;69207;47.502;18.940;2023-07-13T03:13:05;97789.94;;;19.67;75.40
65754;BME280;69207;47.502;18.940;2023-07-13T03:14:08;97793.38;;;19.65;76.06
65754;BME280;69207;47.502;18.940;2023-07-13T03:15:11;97786.44;;;19.66;77.04
65754;BME280;69207;47.502;18.940;2023-07-13T03:16:15;97787.84;;;19.67;76.87
65754;BME280;69207;47.502;18.940;2023-07-13T03:17:20;97788.69;;;19.72;76.60
65754;BME280;69207;47.502;18.940;2023-07-13T03:18:25;97781.19;;;19.78;76.30
65754;BME280;69207;47.502;18.940;2023-07-13T03:19:28;97781.88;;;19.77;76.18
65754;BME280;69207;47.502;18.940;2023-07-13T03:20:35;97776.16;;;19.73;76.42
65754;BME280;69207;47.502;18.940;2023-07-13T03:21:38;97774.69;;;19.70;77.46
65754;BME280;69207;47.502;18.940;2023-07-13T03:22:40;97769.06;;;19.68;78.19
65754;BME280;69207;47.502;18.940;2023-07-13T03:23:44;97771.06;;;19.65;79.09
65754;BME280;69207;47.502;18.940;2023-07-13T03:24:47;97765.56;;;19.67;79.65
65754;BME280;69207;47.502;18.940;2023-07-13T03:26:04;97768.47;;;19.71;79.23
65754;BME280;69207;47.502;18.940;2023-07-13T03:27:08;97769.94;;;19.74;79.15
65754;BME280;69207;47.502;18.940;2023-07-13T03:28:12;97774.84;;;19.76;79.30
65754;BME280;69207;47.502;18.940;2023-07-13T03:29:15;97777.03;;;19.80;79.41
65754;BME280;69207;47.502;18.940;2023-07-13T03:30:18;97767.37;;;19.83;79.60
65754;BME280;69207;47.502;18.940;2023-07-13T03:31:24;97762.59;;;19.87;79.85
65754;BME280;69207;47.502;18.940;2023-07-13T03:33:50;97764.91;;;19.95;80.43
65754;BME280;69207;47.502;18.940;2023-07-13T03:34:53;97750.34;;;19.98;81.18
65754;BME280;69207;47.502;18.940;2023-07-13T03:35:57;97751.78;;;19.99;81.75
65754;BME280;69207;47.502;18.940;2023-07-13T03:37:00;97751.84;;;20.01;82.43
65754;BME280;69207;47.502;18.940;2023-07-13T03:38:02;97759.59;;;20.05;82.19
65754;BME280;69207;47.502;18.940;2023-07-13T03:39:05;97759.69;;;20.09;82.07
65754;BME280;69207;47.502;18.940;2023-07-13T03:40:12;97775.13;;;20.12;82.15
65754;BME280;69207;47.502;18.940;2023-07-13T03:41:15;97782.09;;;20.13;82.85
65754;BME280;69207;47.502;18.940;2023-07-13T03:42:18;97784.94;;;20.15;82.87
65754;BME280;69207;47.502;18.940;2023-07-13T03:43:21;97797.53;;;20.16;83.19
65754;BME280;69207;47.502;18.940;2023-07-13T03:44:24;97790.63;;;20.19;83.70
65754;BME280;69207;47.502;18.940;2023-07-13T03:45:27;97790.69;;;20.21;84.66
65754;BME280;69207;47.502;18.940;2023-07-13T03:46:30;97783.91;;;20.28;83.99
65754;BME280;69207;47.502;18.940;2023-07-13T03:47:32;97790.94;;;20.31;83.93
65754;BME280;69207;47.502;18.940;2023-07-13T03:48:35;97800.09;;;20.34;83.93
65754;BME280;69207;47.502;18.940;2023-07-13T03:49:38;97786.19;;;20.36;84.30
65754;BME280;69207;47.502;18.940;2023-07-13T03:50:41;97790.37;;;20.37;85.14
65754;BME280;69207;47.502;18.940;2023-07-13T03:51:44;97788.38;;;20.40;85.77
65754;BME280;69207;47.502;18.940;2023-07-13T03:52:47;97784.25;;;20.43;86.13
65754;BME280;69207;47.502;18.940;2023-07-13T03:53:50;97784.31;;;20.45;86.59
65754;BME280;69207;47.502;18.940;2023-07-13T03:54:52;97782.28;;;20.47;86.75
65754;BME280;69207;47.502;18.940;2023-07-13T03:55:55;97786.56;;;20.50;87.30
65754;BME280;69207;47.502;18.940;2023-07-13T03:56:58;97781.03;;;20.52;87.92
65754;BME280;69207;47.502;18.940;2023-07-13T03:58:31;97774.84;;;20.56;87.59
65754;BME280;69207;47.502;18.940;2023-07-13T03:59:35;97783.31;;;20.60;87.87
65754;BME280;69207;47.502;18.940;2023-07-13T04:00:37;97783.34;;;20.62;88.10
65754;BME280;69207;47.502;18.940;2023-07-13T04:01:40;97783.47;;;20.66;87.62
65754;BME280;69207;47.502;18.940;2023-07-13T04:02:43;97781.47;;;20.71;87.24
65754;BME280;69207;47.502;18.940;2023-07-13T04:03:46;97787.81;;;20.73;86.93
65754;BME280;69207;47.502;18.940;2023-07-13T04:04:50;97791.31;;;20.74;86.85
65754;BME280;69207;47.502;18.940;2023-07-13T04:05:53;97794.09;;;20.74;87.01
65754;BME280;69207;47.502;18.940;2023-07-13T04:06:57;97805.31;;;20.76;87.29
65754;BME280;69207;47.502;18.940;2023-07-13T04:08:00;97809.56;;;20.79;87.37
65754;BME280;69207;47.502;18.940;2023-07-13T04:09:04;97816.56;;;20.80;87.28
65754;BME280;69207;47.502;18.940;2023-07-13T04:10:10;97823.63;;;20.83;87.09
65754;BME280;69207;47.502;18.940;2023-07-13T04:11:13;97838.34;;;20.86;86.93
65754;BME280;69207;47.502;18.940;2023-07-13T04:12:16;97845.34;;;20.87;86.93
65754;BME280;69207;47.502;18.940;2023-07-13T04:13:18;97848.19;;;20.89;87.25
65754;BME280;69207;47.502;18.940;2023-07-13T04:14:21;97857.28;;;20.89;88.15
65754;BME280;69207;47.502;18.940;2023-07-13T04:15:24;97860.78;;;20.90;88.40
65754;BME280;69207;47.502;18.940;2023-07-13T04:16:26;97874.84;;;20.94;88.24
65754;BME280;69207;47.502;18.940;2023-07-13T04:17:29;97874.87;;;20.96;88.61
65754;BME280;69207;47.502;18.940;2023-07-13T04:18:32;97870.72;;;20.97;88.52
65754;BME280;69207;47.502;18.940;2023-07-13T04:19:35;97872.84;;;20.98;88.37
65754;BME280;69207;47.502;18.940;2023-07-13T04:20:38;97869.41;;;21.00;88.18
65754;BME280;69207;47.502;18.940;2023-07-13T04:21:40;97869.41;;;21.00;88.08
65754;BME280;69207;47.502;18.940;2023-07-13T04:22:43;97869.41;;;21.00;88.16
65754;BME280;69207;47.502;18.940;2023-07-13T04:23:46;97868.03;;;21.01;87.99
65754;BME280;69207;47.502;18.940;2023-07-13T04:24:49;97866.56;;;20.98;87.72
65754;BME280;69207;47.502;18.940;2023-07-13T04:25:53;97863.00;;;20.95;87.77
65754;BME280;69207;47.502;18.940;2023-07-13T04:26:56;97872.78;;;20.94;88.07
65754;BME280;69207;47.502;18.940;2023-07-13T04:28:03;97872.06;;;20.94;87.88
65754;BME280;69207;47.502;18.940;2023-07-13T04:29:06;97876.28;;;20.95;87.88
65754;BME280;69207;47.502;18.940;2023-07-13T04:30:09;97876.31;;;20.97;87.27
65754;BME280;69207;47.502;18.940;2023-07-13T04:31:12;97874.19;;;20.95;87.01
65754;BME280;69207;47.502;18.940;2023-07-13T04:32:15;97873.41;;;20.93;86.95
65754;BME280;69207;47.502;18.940;2023-07-13T04:33:18;97875.41;;;20.88;87.28
65754;BME280;69207;47.502;18.940;2023-07-13T04:34:30;97885.88;;;20.88;87.28
65754;BME280;69207;47.502;18.940;2023-07-13T04:35:33;97880.28;;;20.88;87.27
65754;BME280;69207;47.502;18.940;2023-07-13T04:36:36;97881.59;;;20.85;87.33
65754;BME280;69207;47.502;18.940;2023-07-13T04:37:40;97891.34;;;20.83;87.62
65754;BME280;69207;47.502;18.940;2023-07-13T04:38:43;97892.72;;;20.82;88.09
65754;BME280;69207;47.502;18.940;2023-07-13T04:39:46;97891.94;;;20.80;88.11
65754;BME280;69207;47.502;18.940;2023-07-13T04:40:49;97894.62;;;20.76;88.42
65754;BME280;69207;47.502;18.940;2023-07-13T04:41:52;97893.09;;;20.71;88.79
65754;BME280;69207;47.502;18.940;2023-07-13T04:42:55;97903.47;;;20.66;88.37
65754;BME280;69207;47.502;18.940;2023-07-13T04:43:58;97908.41;;;20.68;88.31
65754;BME280;69207;47.502;18.940;2023-07-13T04:45:01;97924.47;;;20.69;87.42
65754;BME280;69207;47.502;18.940;2023-07-13T04:46:06;97918.75;;;20.63;87.06
65754;BME280;69207;47.502;18.940;2023-07-13T04:47:10;97922.88;;;20.60;87.57
65754;BME280;69207;47.502;18.940;2023-07-13T04:48:13;97925.53;;;20.56;88.32
65754;BME280;69207;47.502;18.940;2023-07-13T04:49:15;97926.91;;;20.55;88.51
65754;BME280;69207;47.502;18.940;2023-07-13T04:50:18;97939.34;;;20.50;89.85
65754;BME280;69207;47.502;18.940;2023-07-13T04:51:25;97932.19;;;20.45;90.43
65754;BME280;69207;47.502;18.940;2023-07-13T04:52:28;97937.66;;;20.41;90.81
65754;BME280;69207;47.502;18.940;2023-07-13T04:53:31;97946.06;;;20.43;90.84
65754;BME280;69207;47.502;18.940;2023-07-13T04:54:35;97945.31;;;20.40;91.49
65754;BME280;69207;47.502;18.940;2023-07-13T04:55:38;97945.97;;;20.39;91.95
65754;BME280;69207;47.502;18.940;2023-07-13T04:56:40;97966.13;;;20.37;92.50
65754;BME280;69207;47.502;18.940;2023-07-13T04:57:43;97979.28;;;20.33;93.57
65754;BME280;69207;47.502;18.940;2023-07-13T04:58:46;97989.13;;;20.36;94.44
65754;BME280;69207;47.502;18.940;2023-07-13T04:59:49;97998.69;;;20.28;95.50
65754;BME280;69207;47.502;18.940;2023-07-13T05:00:51;98014.59;;;20.24;96.91
65754;BME280;69207;47.502;18.940;2023-07-13T05:01:54;98026.41;;;20.22;98.21
65754;BME280;69207;47.502;18.940;2023-07-13T05:02:58;98031.22;;;20.20;99.39
65754;BME280;69207;47.502;18.940;2023-07-13T05:04:01;98053.53;;;20.20;99.53
65754;BME280;69207;47.502;18.940;2023-07-13T05:05:05;98059.75;;;20.18;100.00
65754;BME280;69207;47.502;18.940;2023-07-13T05:06:08;98063.25;;;20.19;100.00
65754;BME280;69207;47.502;18.940;2023-07-13T05:07:14;98079.28;;;20.18;100.00
65754;BME280;69207;47.502;18.940;2023-07-13T05:08:17;98075.00;;;20.15;100.00
65754;BME280;69207;47.502;18.940;2023-07-13T05:09:20;98088.94;;;20.15;100.00
65754;BME280;69207;47.502;18.940;2023-07-13T05:10:23;98096.66;;;20.17;100.00
65754;BME280;69207;47.502;18.940;2023-07-13T05:11:26;98101.78;;;20.24;100.00
65754;BME280;69207;47.502;18.940;2023-07-13T05:12:29;98117.16;;;20.25;100.00
65754;BME280;69207;47.502;18.940;2023-07-13T05:13:31;98117.28;;;20.29;100.00
65754;BME280;69207;47.502;18.940;2023-07-13T05:14:34;98123.38;;;20.24;100.00
65754;BME280;69207;47.502;18.940;2023-07-13T05:15:37;98122.50;;;20.17;100.00
65754;BME280;69207;47.502;18.940;2023-07-13T05:16:40;98127.06;;;20.30;100.00
65754;BME280;69207;47.502;18.940;2023-07-13T05:17:42;98122.16;;;20.29;100.00
65754;BME280;69207;47.502;18.940;2023-07-13T05:18:45;98122.84;;;20.29;100.00
65754;BME280;69207;47.502;18.940;2023-07-13T05:19:48;98117.28;;;20.29;100.00
65754;BME280;69207;47.502;18.940;2023-07-13T05:21:05;98113.22;;;20.11;100.00
65754;BME280;69207;47.502;18.940;2023-07-13T05:22:08;98112.91;;;20.00;100.00
65754;BME280;69207;47.502;18.940;2023-07-13T05:23:11;98108.75;;;20.01;100.00
65754;BME280;69207;47.502;18.940;2023-07-13T05:24:13;98107.12;;;19.94;100.00
65754;BME280;69207;47.502;18.940;2023-07-13T05:25:27;98099.09;;;19.83;100.00
65754;BME280;69207;47.502;18.940;2023-07-13T05:26:29;98093.44;;;19.81;100.00
65754;BME280;69207;47.502;18.940;2023-07-13T05:27:33;98101.94;;;19.85;100.00
65754;BME280;69207;47.502;18.940;2023-07-13T05:28:37;98111.28;;;19.93;100.00
65754;BME280;69207;47.502;18.940;2023-07-13T05:29:40;98101.28;;;19.86;100.00
65754;BME280;69207;47.502;18.940;2023-07-13T05:30:46;98113.66;;;19.81;100.00
65754;BME280;69207;47.502;18.940;2023-07-13T05:31:50;98116.06;;;19.69;100.00
65754;BME280;69207;47.502;18.940;2023-07-13T05:32:53;98126.28;;;19.62;100.00
65754;BME280;69207;47.502;18.940;2023-07-13T05:33:56;98117.47;;;19.70;100.00
65754;BME280;69207;47.502;18.940;2023-07-13T05:34:58;98110.63;;;19.73;100.00
65754;BME280;69207;47.502;18.940;2023-07-13T05:36:01;98116.72;;;19.67;100.00
65754;BME280;69207;47.502;18.940;2023-07-13T05:37:04;98119.28;;;19.61;100.00